Time;durP1;ratioP1;P1;durP2;ratioP2;P2;SDS_P1;SDS_P2;PMS_P1;PMS_P2;Temp;Humidity;BMP_temperature;BMP_pressure;BME280_temperature;BME280_humidity;BME280_pressure;Samples;Min_cycle;Max_cycle;Signal;HPM_P1;HPM_P2
2021/12/10 00:01:51;;;;;;;9.23;2.70;;;1.50;99.90;;;;;;5018195;28;20025;-66
2021/12/10 00:04:20;;;;;;;6.22;2.22;;;1.40;99.90;;;;;;5021328;28;20030;-67
2021/12/10 00:06:51;;;;;;;11.50;2.47;;;1.40;99.90;;;;;;5016537;28;20029;-68
2021/12/10 00:09:28;;;;;;;6.53;2.30;;;1.30;99.90;;;;;;5024999;28;20040;-67
2021/12/10 00:12:03;;;;;;;5.70;2.10;;;1.30;99.90;;;;;;5005544;28;20466;-68
2021/12/10 00:14:31;;;;;;;9.60;2.65;;;1.30;99.90;;;;;;5016398;28;21307;-71
2021/12/10 00:16:59;;;;;;;5.60;2.58;;;1.30;99.90;;;;;;5008037;28;20037;-68
2021/12/10 00:21:59;;;;;;;8.98;2.88;;;1.20;99.90;;;;;;5018257;28;20036;-68
2021/12/10 00:24:29;;;;;;;11.20;3.33;;;1.30;99.90;;;;;;5020853;28;20037;-68
2021/12/10 00:26:57;;;;;;;11.68;3.70;;;1.20;99.90;;;;;;5020984;28;20050;-68
2021/12/10 00:29:25;;;;;;;8.48;3.28;;;1.20;99.90;;;;;;5011132;28;20046;-68
2021/12/10 00:32:02;;;;;;;11.32;3.35;;;1.20;99.90;;;;;;5009775;28;20215;-67
2021/12/10 00:34:33;;;;;;;11.60;3.67;;;1.20;99.90;;;;;;5025041;28;20053;-67
2021/12/10 00:37:02;;;;;;;10.60;3.72;;;1.20;99.90;;;;;;5027427;28;20036;-67
2021/12/10 00:39:38;;;;;;;8.25;3.22;;;1.20;99.90;;;;;;5021296;28;20033;-66
2021/12/10 00:42:07;;;;;;;7.13;3.15;;;1.20;99.90;;;;;;5020820;28;20043;-68
2021/12/10 00:44:33;;;;;;;7.28;3.10;;;1.20;99.90;;;;;;5023671;28;20022;-71
2021/12/10 00:46:59;;;;;;;8.90;3.30;;;1.10;99.90;;;;;;5008472;28;20029;-68
2021/12/10 00:49:25;;;;;;;8.25;3.28;;;1.10;99.90;;;;;;5007148;28;20364;-66
2021/12/10 00:51:51;;;;;;;9.50;3.30;;;1.00;99.90;;;;;;5011178;28;20030;-69
2021/12/10 00:54:17;;;;;;;12.05;3.50;;;1.00;99.90;;;;;;5020700;28;20033;-68
2021/12/10 00:56:44;;;;;;;8.60;3.35;;;1.00;99.90;;;;;;5018379;28;20025;-68
2021/12/10 00:59:11;;;;;;;11.70;3.80;;;1.00;99.90;;;;;;5023901;28;20144;-68
2021/12/10 01:01:38;;;;;;;11.60;3.42;;;0.80;99.90;;;;;;5003431;28;20441;-68
2021/12/10 01:04:09;;;;;;;7.00;2.92;;;0.80;99.90;;;;;;5008516;28;20030;-68
2021/12/10 01:06:37;;;;;;;8.77;3.55;;;0.80;99.90;;;;;;5019343;28;20508;-71
2021/12/10 01:09:11;;;;;;;11.95;3.75;;;0.80;99.90;;;;;;5010646;28;20076;-69
2021/12/10 01:11:50;;;;;;;14.02;3.85;;;0.80;99.90;;;;;;5008436;28;20038;-69
2021/12/10 01:14:29;;;;;;;8.40;4.65;;;0.80;99.90;;;;;;5014783;28;20033;-68
2021/12/10 01:28:11;;;;;;;8.60;3.50;;;0.60;99.90;;;;;;5012283;28;20050;-69
2021/12/10 01:30:39;;;;;;;9.98;4.13;;;0.60;99.90;;;;;;5018694;28;20490;-71
2021/12/10 01:33:12;;;;;;;14.25;4.57;;;0.50;99.90;;;;;;5017010;28;20026;-69
2021/12/10 01:35:41;;;;;;;10.95;4.15;;;0.50;99.90;;;;;;5018015;28;20026;-72
2021/12/10 01:38:10;;;;;;;12.82;4.70;;;0.60;99.90;;;;;;5009157;28;20061;-69
2021/12/10 01:40:40;;;;;;;7.50;3.40;;;0.50;99.90;;;;;;5007209;28;20387;-70
2021/12/10 01:43:11;;;;;;;13.07;4.13;;;0.40;99.90;;;;;;5006940;28;20137;-69
2021/12/10 01:45:47;;;;;;;13.50;4.85;;;0.40;99.90;;;;;;5007907;28;20100;-71
2021/12/10 01:48:24;;;;;;;18.52;5.47;;;0.40;99.90;;;;;;5013499;28;20058;-69
2021/12/10 01:50:54;;;;;;;17.63;6.95;;;0.40;99.90;;;;;;5011237;28;20028;-71
2021/12/10 01:53:23;;;;;;;;;;;0.40;99.90;;;;;;4998995;28;20403;-68
2021/12/10 01:55:55;;;;;;;16.35;5.22;;;0.40;99.90;;;;;;5001526;28;19960;-69
2021/12/10 01:58:24;;;;;;;10.95;4.05;;;0.40;99.90;;;;;;5006698;28;20046;-69
2021/12/10 02:01:02;;;;;;;14.02;4.38;;;0.30;99.90;;;;;;5006339;28;20018;-68
2021/12/10 02:03:28;;;;;;;10.80;3.88;;;0.30;99.90;;;;;;5007405;28;20033;-68
2021/12/10 02:05:54;;;;;;;8.20;3.72;;;0.30;99.90;;;;;;4992462;28;20387;-68
2021/12/10 02:08:20;;;;;;;9.95;3.70;;;0.20;99.90;;;;;;5013750;28;20036;-68
2021/12/10 02:10:46;;;;;;;10.45;3.42;;;0.20;99.90;;;;;;5019796;28;20033;-68
2021/12/10 02:13:13;;;;;;;11.98;4.18;;;0.20;99.90;;;;;;5013539;28;20022;-68
2021/12/10 02:15:39;;;;;;;12.80;5.03;;;0.20;99.90;;;;;;5009357;28;20069;-70
2021/12/10 02:18:06;;;;;;;11.48;4.22;;;0.20;99.90;;;;;;5022832;28;20084;-68
2021/12/10 02:20:52;;;;;;;13.00;4.70;;;0.20;99.90;;;;;;5019724;28;20021;-69
2021/12/10 02:23:18;;;;;;;12.05;4.82;;;0.20;99.90;;;;;;5003679;28;20376;-68
2021/12/10 02:25:44;;;;;;;10.82;4.47;;;0.20;99.90;;;;;;5006656;28;20093;-68
2021/12/10 02:28:12;;;;;;;11.80;3.97;;;0.10;99.90;;;;;;5020602;28;20049;-69
2021/12/10 02:30:39;;;;;;;10.27;3.67;;;0.00;99.90;;;;;;5024854;28;20032;-70
2021/12/10 02:33:06;;;;;;;14.52;4.70;;;0.00;99.90;;;;;;5010511;28;20025;-69
2021/12/10 02:35:32;;;;;;;18.35;4.68;;;0.00;99.90;;;;;;5020156;28;20034;-68
2021/12/10 02:37:59;;;;;;;10.13;4.13;;;0.00;99.90;;;;;;5013723;28;20644;-69
2021/12/10 02:40:27;;;;;;;11.48;4.38;;;0.00;99.90;;;;;;5021465;28;20040;-69
2021/12/10 02:42:54;;;;;;;10.68;4.20;;;-0.10;99.90;;;;;;5017461;28;20034;-68
2021/12/10 02:45:22;;;;;;;11.63;3.75;;;-0.20;99.90;;;;;;5017007;28;20091;-69
2021/12/10 02:47:49;;;;;;;8.85;3.85;;;-0.30;99.90;;;;;;5011973;28;20431;-69
2021/12/10 02:50:19;;;;;;;11.05;3.80;;;-0.30;99.90;;;;;;5013002;28;20460;-67
2021/12/10 02:52:45;;;;;;;7.97;3.13;;;-0.30;99.90;;;;;;5011327;28;20033;-68
2021/12/10 02:55:15;;;;;;;19.05;3.40;;;-0.30;99.90;;;;;;5016828;28;20410;-68
2021/12/10 02:57:46;;;;;;;8.13;3.17;;;-0.30;99.90;;;;;;5011771;28;20038;-70
2021/12/10 03:00:16;;;;;;;8.32;3.65;;;-0.20;99.90;;;;;;5009939;28;20633;-69
2021/12/10 03:02:42;;;;;;;11.95;3.60;;;-0.20;99.90;;;;;;5008345;28;20041;-70
2021/12/10 03:05:09;;;;;;;7.72;3.40;;;-0.30;99.90;;;;;;5012272;28;20034;-68
2021/12/10 03:07:37;;;;;;;10.13;3.10;;;-0.30;99.90;;;;;;5012367;28;20037;-70
2021/12/10 03:10:08;;;;;;;11.13;3.50;;;-0.30;99.90;;;;;;5008581;28;20974;-68
2021/12/10 03:12:33;;;;;;;12.93;3.17;;;-0.30;99.90;;;;;;5020906;28;20037;-68
2021/12/10 03:14:59;;;;;;;10.88;3.30;;;-0.30;99.90;;;;;;5008290;28;20033;-69
2021/12/10 03:17:29;;;;;;;11.50;3.65;;;-0.20;99.90;;;;;;5015646;28;20113;-68
2021/12/10 03:19:55;;;;;;;7.88;3.22;;;-0.20;99.90;;;;;;5014766;28;20044;-68
2021/12/10 03:22:21;;;;;;;12.18;3.63;;;-0.20;99.90;;;;;;5022408;28;20040;-68
2021/12/10 03:24:47;;;;;;;11.32;3.70;;;-0.20;99.90;;;;;;5016568;28;20049;-69
2021/12/10 03:27:15;;;;;;;12.70;3.35;;;-0.20;99.90;;;;;;5020717;28;20073;-68
2021/12/10 03:29:43;;;;;;;10.60;3.25;;;-0.20;99.90;;;;;;5021353;28;20041;-70
2021/12/10 03:32:14;;;;;;;15.13;4.47;;;-0.20;99.90;;;;;;5021987;28;20037;-69
2021/12/10 03:34:40;;;;;;;12.20;3.97;;;-0.20;99.90;;;;;;5010191;28;20087;-68
2021/12/10 03:37:07;;;;;;;13.75;4.30;;;-0.30;99.90;;;;;;5027351;28;20033;-68
2021/12/10 03:39:33;;;;;;;12.25;4.05;;;-0.30;99.90;;;;;;5018491;28;20022;-69
2021/12/10 03:41:59;;;;;;;11.00;4.25;;;-0.30;99.90;;;;;;5012238;28;20037;-71
2021/12/10 03:44:26;;;;;;;12.77;3.97;;;-0.30;99.90;;;;;;5021810;28;20034;-67
2021/12/10 03:46:53;;;;;;;15.88;4.88;;;-0.40;99.90;;;;;;5018680;28;20068;-68
2021/12/10 03:49:19;;;;;;;9.88;4.20;;;-0.40;99.90;;;;;;5015765;28;20111;-67
2021/12/10 03:51:45;;;;;;;13.65;4.60;;;-0.30;99.90;;;;;;5008285;28;20574;-70
2021/12/10 03:54:12;;;;;;;18.42;5.53;;;-0.30;99.90;;;;;;5013368;28;20025;-68
2021/12/10 03:56:39;;;;;;;15.73;4.97;;;-0.40;99.90;;;;;;5025939;28;20053;-67
2021/12/10 03:59:09;;;;;;;15.43;5.10;;;-0.40;99.90;;;;;;5008482;28;20193;-67
2021/12/10 04:01:41;;;;;;;15.65;5.65;;;-0.30;99.90;;;;;;5003672;28;20034;-68
2021/12/10 04:04:11;;;;;;;16.77;5.78;;;-0.40;99.90;;;;;;5011574;28;20482;-67
2021/12/10 04:06:37;;;;;;;14.03;5.37;;;-0.40;99.90;;;;;;5017191;28;20116;-68
2021/12/10 04:09:05;;;;;;;19.98;6.20;;;-0.40;99.90;;;;;;5014298;28;20395;-68
2021/12/10 04:11:32;;;;;;;19.27;5.97;;;-0.40;99.90;;;;;;5000033;28;20029;-67
2021/12/10 04:13:59;;;;;;;18.02;6.18;;;-0.40;99.90;;;;;;5009240;28;20030;-68
2021/12/10 04:16:27;;;;;;;17.85;5.95;;;-0.50;99.90;;;;;;5010257;28;20096;-68
2021/12/10 04:18:59;;;;;;;19.45;6.25;;;-0.50;99.90;;;;;;5002929;28;20037;-68
2021/12/10 04:21:25;;;;;;;19.25;6.38;;;-0.50;99.90;;;;;;5003560;28;20034;-68
2021/12/10 04:23:52;;;;;;;17.52;5.95;;;-0.40;99.90;;;;;;5009409;28;20048;-69
2021/12/10 04:26:24;;;;;;;18.92;5.78;;;-0.40;99.90;;;;;;4998798;28;20045;-68
2021/12/10 04:28:51;;;;;;;14.77;5.32;;;-0.40;99.90;;;;;;5006075;28;20046;-68
2021/12/10 04:31:17;;;;;;;14.45;6.05;;;-0.50;99.90;;;;;;5001469;28;20436;-68
2021/12/10 04:33:43;;;;;;;16.33;5.75;;;-0.50;99.90;;;;;;5009795;28;20093;-67
2021/12/10 04:36:09;;;;;;;14.50;5.05;;;-0.40;99.90;;;;;;5007485;28;20117;-68
2021/12/10 04:38:36;;;;;;;15.13;5.57;;;-0.50;99.90;;;;;;5002661;28;20121;-67
2021/12/10 04:41:06;;;;;;;17.83;5.40;;;-0.50;99.90;;;;;;5040800;28;20052;-69
2021/12/10 04:43:34;;;;;;;17.50;5.40;;;-0.50;99.90;;;;;;5003039;28;20109;-69
2021/12/10 04:46:00;;;;;;;16.95;6.10;;;-0.50;99.90;;;;;;5003708;28;20052;-67
2021/12/10 04:48:27;;;;;;;17.25;6.70;;;-0.60;99.90;;;;;;5008772;28;20694;-67
2021/12/10 04:50:54;;;;;;;15.57;6.30;;;-0.60;99.90;;;;;;5002369;28;20032;-68
2021/12/10 04:53:19;;;;;;;23.45;6.82;;;-0.70;99.90;;;;;;5010008;28;20099;-68
2021/12/10 04:55:45;;;;;;;26.25;8.75;;;-0.80;99.90;;;;;;5009717;28;20409;-67
2021/12/10 04:58:12;;;;;;;23.25;8.60;;;-0.80;99.90;;;;;;5009742;28;20090;-69
2021/12/10 05:00:45;;;;;;;20.58;8.05;;;-0.70;99.90;;;;;;5006731;28;20036;-67
2021/12/10 05:03:13;;;;;;;24.80;9.25;;;-0.70;99.90;;;;;;5042959;28;20137;-65
2021/12/10 05:05:39;;;;;;;26.85;8.98;;;-0.70;99.90;;;;;;5042565;28;20331;-65
2021/12/10 05:08:07;;;;;;;25.83;9.60;;;-0.70;99.90;;;;;;5024398;28;20075;-66
2021/12/10 05:10:33;;;;;;;31.58;9.60;;;-0.80;99.90;;;;;;5013038;28;20043;-65
2021/12/10 05:12:59;;;;;;;32.85;9.27;;;-0.70;99.90;;;;;;5016129;28;20497;-65
2021/12/10 05:15:28;;;;;;;33.05;10.40;;;-0.70;99.90;;;;;;5008290;28;20034;-65
2021/12/10 05:17:54;;;;;;;30.10;10.85;;;-0.60;99.90;;;;;;5005634;28;20481;-64
2021/12/10 05:20:27;;;;;;;37.70;11.23;;;-0.70;99.90;;;;;;5006879;28;20030;-65
2021/12/10 05:22:52;;;;;;;32.10;10.48;;;-0.70;99.90;;;;;;5016948;28;20562;-66
2021/12/10 05:25:19;;;;;;;38.55;10.88;;;-0.70;99.90;;;;;;5011713;28;20108;-65
2021/12/10 05:27:46;;;;;;;33.25;11.07;;;-0.70;99.90;;;;;;5017889;28;20060;-66
2021/12/10 05:30:18;;;;;;;38.38;10.55;;;-0.70;99.90;;;;;;5010430;28;20049;-67
2021/12/10 05:32:44;;;;;;;30.48;11.00;;;-0.70;99.90;;;;;;5009734;28;20048;-68
2021/12/10 05:35:09;;;;;;;35.33;11.63;;;-0.70;99.90;;;;;;5008532;28;20297;-68
2021/12/10 05:37:35;;;;;;;28.23;10.32;;;-0.70;99.90;;;;;;5007843;28;20030;-65
2021/12/10 05:40:02;;;;;;;36.58;11.93;;;-0.70;99.90;;;;;;4994307;28;20069;-68
2021/12/10 05:42:27;;;;;;;25.92;9.65;;;-0.70;99.90;;;;;;5004625;28;20038;-67
2021/12/10 05:44:53;;;;;;;30.35;10.18;;;-0.70;99.90;;;;;;5014098;28;20033;-69
2021/12/10 05:47:19;;;;;;;29.33;10.13;;;-0.70;99.90;;;;;;5009844;28;20037;-67
2021/12/10 05:49:45;;;;;;;26.08;8.75;;;-0.70;99.90;;;;;;5007556;28;20415;-69
2021/12/10 05:52:11;;;;;;;30.88;8.85;;;-0.70;99.90;;;;;;5007064;28;20030;-67
2021/12/10 05:54:37;;;;;;;27.85;9.55;;;-0.60;99.90;;;;;;5007690;28;20037;-67
2021/12/10 05:57:04;;;;;;;25.83;8.40;;;-0.50;99.90;;;;;;5005768;28;20045;-66
2021/12/10 05:59:30;;;;;;;27.35;9.73;;;-0.50;99.90;;;;;;5014501;28;20064;-67
2021/12/10 06:01:57;;;;;;;25.70;8.70;;;-0.50;99.90;;;;;;5017985;28;20033;-66
2021/12/10 06:04:27;;;;;;;29.30;9.00;;;-0.50;99.90;;;;;;5013108;28;20471;-68
2021/12/10 06:06:54;;;;;;;29.13;9.82;;;-0.50;99.90;;;;;;5007240;28;20108;-70
2021/12/10 06:09:21;;;;;;;25.50;9.05;;;-0.50;99.90;;;;;;5019719;28;20042;-65
2021/12/10 06:11:46;;;;;;;27.60;9.30;;;-0.50;99.90;;;;;;5008911;28;20029;-67
2021/12/10 06:14:13;;;;;;;27.77;8.65;;;-0.50;99.90;;;;;;5010981;28;20102;-69
2021/12/10 06:16:38;;;;;;;30.92;8.00;;;-0.60;99.90;;;;;;5014404;28;20124;-68
2021/12/10 06:19:06;;;;;;;26.67;8.85;;;-0.60;99.90;;;;;;5011602;28;20582;-67
2021/12/10 06:21:33;;;;;;;27.83;9.63;;;-0.60;99.90;;;;;;5013480;28;20121;-67
2021/12/10 06:24:00;;;;;;;28.48;9.45;;;-0.60;99.90;;;;;;5010199;28;20030;-67
2021/12/10 06:26:25;;;;;;;25.70;8.50;;;-0.60;99.90;;;;;;5006001;28;20050;-69
2021/12/10 06:28:51;;;;;;;28.00;8.88;;;-0.60;99.90;;;;;;5000415;28;20121;-67
2021/12/10 06:31:20;;;;;;;27.02;9.02;;;-0.60;99.90;;;;;;5010394;28;20033;-66
2021/12/10 06:33:46;;;;;;;28.83;9.23;;;-0.60;99.90;;;;;;5010025;28;20026;-69
2021/12/10 06:36:14;;;;;;;24.00;8.27;;;-0.60;99.90;;;;;;5009362;28;20032;-69
2021/12/10 06:38:40;;;;;;;26.73;8.48;;;-0.50;99.90;;;;;;5012895;28;20088;-68
2021/12/10 06:41:06;;;;;;;25.95;8.35;;;-0.60;99.90;;;;;;5019096;28;20034;-69
2021/12/10 06:43:32;;;;;;;28.17;8.63;;;-0.50;99.90;;;;;;5014269;28;20029;-69
2021/12/10 06:46:00;;;;;;;30.55;9.52;;;-0.60;99.90;;;;;;5009383;28;20109;-69
2021/12/10 06:48:27;;;;;;;32.60;10.90;;;-0.60;99.90;;;;;;5009386;28;20042;-70
2021/12/10 06:51:01;;;;;;;26.35;8.80;;;-0.60;99.90;;;;;;5009651;28;20064;-72
2021/12/10 06:53:29;;;;;;;31.10;9.98;;;-0.60;99.90;;;;;;5004911;28;20057;-69
2021/12/10 06:55:58;;;;;;;25.83;9.18;;;-0.70;99.90;;;;;;5014588;28;20053;-70
2021/12/10 06:58:24;;;;;;;26.83;8.48;;;-0.70;99.90;;;;;;5009111;28;20137;-67
2021/12/10 07:01:00;;;;;;;29.98;8.57;;;-0.80;99.90;;;;;;5009882;28;20105;-66
2021/12/10 07:03:27;;;;;;;23.58;8.43;;;-0.90;99.90;;;;;;5013718;28;20038;-65
2021/12/10 07:05:54;;;;;;;27.50;8.63;;;-0.80;99.90;;;;;;5007552;28;20033;-66
2021/12/10 07:08:22;;;;;;;24.05;7.30;;;-0.90;99.90;;;;;;5004674;28;20038;-66
2021/12/10 07:10:48;;;;;;;21.00;7.82;;;-0.80;99.90;;;;;;5000204;28;20041;-66
2021/12/10 07:13:15;;;;;;;20.33;7.40;;;-0.90;99.90;;;;;;5011365;28;20030;-67
2021/12/10 07:15:44;;;;;;;21.08;7.18;;;-0.90;99.90;;;;;;5009641;28;20471;-65
2021/12/10 07:18:10;;;;;;;21.15;7.53;;;-0.80;99.90;;;;;;5010804;28;20038;-66
2021/12/10 07:20:38;;;;;;;27.38;8.27;;;-0.70;99.90;;;;;;5012290;28;20041;-67
2021/12/10 07:23:04;;;;;;;26.65;8.10;;;-0.70;99.90;;;;;;5003976;28;20035;-66
2021/12/10 07:25:30;;;;;;;26.92;7.95;;;-0.70;99.90;;;;;;5014359;28;20029;-67
2021/12/10 07:27:56;;;;;;;26.95;8.43;;;-0.70;99.90;;;;;;5031461;28;20053;-69
2021/12/10 07:30:24;;;;;;;27.38;8.52;;;-0.70;99.90;;;;;;5029880;28;20045;-68
2021/12/10 07:32:50;;;;;;;26.27;7.90;;;-0.70;99.90;;;;;;5015201;28;20030;-67
2021/12/10 07:35:17;;;;;;;27.98;9.55;;;-0.70;99.90;;;;;;5010353;28;20105;-66
2021/12/10 07:37:43;;;;;;;25.67;9.55;;;-0.70;99.90;;;;;;5010035;28;20061;-67
2021/12/10 07:40:12;;;;;;;27.52;9.70;;;-0.60;99.90;;;;;;5010771;28;20041;-66
2021/12/10 07:42:38;;;;;;;25.25;9.05;;;-0.60;99.90;;;;;;5011381;28;20101;-67
2021/12/10 07:45:06;;;;;;;26.73;10.45;;;-0.60;99.90;;;;;;5024695;28;20197;-67
2021/12/10 07:47:35;;;;;;;30.27;9.07;;;-0.60;99.90;;;;;;5027786;28;20037;-66
2021/12/10 07:50:04;;;;;;;20.90;7.40;;;-0.50;99.90;;;;;;5010782;28;20037;-69
2021/12/10 07:52:34;;;;;;;25.00;7.68;;;-0.50;99.90;;;;;;5012388;28;20026;-66
2021/12/10 07:55:00;;;;;;;23.98;7.63;;;-0.50;99.90;;;;;;5013563;28;20041;-69
2021/12/10 07:57:27;;;;;;;22.77;8.02;;;-0.50;99.90;;;;;;5029885;28;20045;-67
2021/12/10 07:59:53;;;;;;;25.90;7.95;;;-0.50;99.90;;;;;;5029647;28;20049;-65
2021/12/10 08:02:19;;;;;;;26.88;8.63;;;-0.40;99.90;;;;;;5019733;28;20033;-67
2021/12/10 08:04:45;;;;;;;25.73;7.85;;;-0.40;99.90;;;;;;5030746;28;20048;-67
2021/12/10 08:07:13;;;;;;;23.42;7.88;;;-0.40;99.90;;;;;;5010575;28;20033;-64
2021/12/10 08:09:39;;;;;;;23.77;7.55;;;-0.40;99.90;;;;;;5021312;28;20041;-65
2021/12/10 08:12:06;;;;;;;25.10;8.18;;;-0.40;99.90;;;;;;5021211;28;20115;-67
2021/12/10 08:14:31;;;;;;;37.65;11.00;;;-0.40;99.90;;;;;;5028848;28;20029;-66
2021/12/10 08:16:57;;;;;;;33.45;11.75;;;-0.40;99.90;;;;;;5025852;28;20036;-67
2021/12/10 08:19:23;;;;;;;23.85;8.45;;;-0.50;99.90;;;;;;5010478;28;20068;-68
2021/12/10 08:21:49;;;;;;;26.35;8.57;;;-0.50;99.90;;;;;;5010252;28;20057;-68
2021/12/10 08:24:14;;;;;;;25.67;8.55;;;-0.50;99.90;;;;;;5020096;28;20030;-65
2021/12/10 08:26:40;;;;;;;18.52;6.40;;;-0.50;99.90;;;;;;5012596;28;20050;-69
2021/12/10 08:29:09;;;;;;;17.13;6.28;;;-0.40;99.90;;;;;;5009054;28;20053;-67
2021/12/10 08:31:35;;;;;;;20.92;6.88;;;-0.30;99.90;;;;;;5011040;28;20029;-66
2021/12/10 08:34:01;;;;;;;14.20;5.15;;;-0.40;99.90;;;;;;5016247;28;20030;-69
2021/12/10 08:36:28;;;;;;;10.93;4.05;;;-0.20;99.90;;;;;;5022706;28;20048;-67
2021/12/10 08:38:54;;;;;;;10.70;4.47;;;0.00;99.90;;;;;;5023419;28;20040;-68
2021/12/10 08:41:26;;;;;;;13.77;4.45;;;0.10;99.90;;;;;;5025746;28;20044;-67
2021/12/10 08:43:56;;;;;;;10.95;3.50;;;0.30;99.90;;;;;;5024698;28;20025;-68
2021/12/10 08:46:23;;;;;;;24.80;11.30;;;0.40;99.90;;;;;;5002820;28;20033;-68
2021/12/10 08:48:49;;;;;;;14.18;4.90;;;0.40;99.90;;;;;;4997481;28;20092;-66
2021/12/10 08:51:20;;;;;;;40.80;22.15;;;0.50;99.90;;;;;;5011749;28;20062;-67
2021/12/10 08:53:47;;;;;;;26.60;12.90;;;0.60;99.90;;;;;;5003573;28;20030;-65
2021/12/10 08:56:13;;;;;;;14.82;5.57;;;0.70;99.90;;;;;;5017803;28;20120;-67
2021/12/10 08:58:39;;;;;;;12.57;4.63;;;0.70;99.90;;;;;;5027377;28;20086;-65
2021/12/10 09:01:14;;;;;;;7.97;3.45;;;0.80;99.90;;;;;;5010108;28;20034;-68
2021/12/10 09:03:40;;;;;;;17.08;6.55;;;0.80;99.90;;;;;;5010100;28;20109;-66
2021/12/10 09:06:07;;;;;;;17.30;8.07;;;0.90;99.90;;;;;;5011418;28;20029;-69
2021/12/10 09:08:33;;;;;;;14.07;4.53;;;0.90;99.90;;;;;;5010161;28;20044;-67
2021/12/10 09:11:00;;;;;;;19.70;8.70;;;1.00;99.90;;;;;;5013155;28;20517;-66
2021/12/10 09:13:26;;;;;;;36.05;19.08;;;1.00;99.90;;;;;;5014171;28;20044;-67
2021/12/10 09:15:58;;;;;;;12.02;4.18;;;1.00;99.90;;;;;;5011779;28;20398;-67
2021/12/10 09:18:24;;;;;;;8.88;3.67;;;1.00;99.90;;;;;;5015341;28;20181;-68
2021/12/10 09:20:52;;;;;;;9.10;3.50;;;1.10;99.90;;;;;;5024493;28;20406;-66
2021/12/10 09:23:22;;;;;;;10.13;3.67;;;1.10;99.90;;;;;;5005587;28;20026;-67
2021/12/10 09:25:50;;;;;;;5.88;2.15;;;1.10;99.90;;;;;;5008762;28;20370;-66
2021/12/10 09:28:16;;;;;;;7.25;3.58;;;1.10;99.90;;;;;;5006585;28;20451;-67
2021/12/10 09:30:47;;;;;;;5.40;2.28;;;1.20;99.90;;;;;;5021548;28;20033;-68
2021/12/10 09:33:13;;;;;;;6.88;2.72;;;1.20;99.90;;;;;;5013868;28;20053;-65
2021/12/10 09:35:39;;;;;;;7.55;2.42;;;1.30;99.90;;;;;;5013050;28;20038;-67
2021/12/10 09:38:05;;;;;;;22.70;11.23;;;1.30;99.90;;;;;;5026066;28;20033;-69
2021/12/10 09:40:34;;;;;;;24.35;11.25;;;1.40;99.90;;;;;;5023543;28;20752;-66
2021/12/10 09:43:03;;;;;;;7.38;2.95;;;1.40;99.90;;;;;;5020898;28;20478;-67
2021/12/10 09:45:32;;;;;;;12.48;5.53;;;1.40;99.90;;;;;;5008024;28;20034;-69
2021/12/10 09:47:59;;;;;;;8.07;2.55;;;1.40;99.90;;;;;;5006311;28;20061;-68
2021/12/10 09:50:37;;;;;;;16.98;7.70;;;1.50;99.90;;;;;;5009138;28;20226;-64
2021/12/10 09:53:04;;;;;;;6.03;2.35;;;1.50;99.90;;;;;;5008975;28;20118;-67
2021/12/10 09:55:30;;;;;;;5.18;1.73;;;1.60;99.90;;;;;;5007440;28;20034;-69
2021/12/10 09:57:56;;;;;;;16.25;6.15;;;1.60;99.90;;;;;;5009282;28;20812;-67
2021/12/10 10:00:42;;;;;;;6.60;2.00;;;1.60;99.90;;;;;;5008641;28;20022;-70
2021/12/10 10:03:11;;;;;;;4.88;1.85;;;1.60;99.90;;;;;;5011491;28;20041;-73
2021/12/10 10:05:40;;;;;;;6.20;1.85;;;1.60;99.90;;;;;;5037252;28;20426;-69
2021/12/10 10:08:09;;;;;;;4.53;1.90;;;1.60;99.90;;;;;;5009514;28;20036;-71
2021/12/10 10:10:39;;;;;;;17.85;7.65;;;1.60;99.90;;;;;;5010229;28;20100;-68
2021/12/10 10:13:07;;;;;;;3.87;1.90;;;1.60;99.90;;;;;;5019461;28;20029;-70
2021/12/10 10:15:36;;;;;;;7.97;2.10;;;1.70;99.90;;;;;;5010840;28;20269;-68
2021/12/10 10:18:09;;;;;;;16.45;5.28;;;1.70;99.90;;;;;;5015769;28;20092;-69
2021/12/10 10:20:38;;;;;;;8.48;2.70;;;1.70;99.90;;;;;;5008534;28;20117;-68
2021/12/10 10:23:07;;;;;;;6.30;2.10;;;1.70;99.90;;;;;;5012715;28;20476;-67
2021/12/10 10:25:35;;;;;;;10.55;3.05;;;1.80;99.90;;;;;;5010964;28;20533;-66
2021/12/10 10:28:03;;;;;;;4.78;2.22;;;1.80;99.90;;;;;;5036041;28;20046;-68
2021/12/10 10:30:38;;;;;;;7.07;2.97;;;1.80;99.90;;;;;;5007486;28;20117;-66
2021/12/10 10:33:07;;;;;;;9.55;4.03;;;1.80;99.90;;;;;;5012002;28;20506;-66
2021/12/10 10:35:45;;;;;;;6.18;2.10;;;1.80;99.90;;;;;;5013350;28;20068;-67
2021/12/10 10:38:13;;;;;;;5.50;1.85;;;1.80;99.90;;;;;;5004081;28;20018;-69
2021/12/10 10:40:45;;;;;;;4.85;2.20;;;1.80;99.90;;;;;;5008970;28;20371;-63
2021/12/10 10:43:11;;;;;;;4.28;1.60;;;1.80;99.90;;;;;;5013891;28;20021;-67
2021/12/10 10:45:42;;;;;;;12.27;6.43;;;1.80;99.90;;;;;;5012932;28;20030;-62
2021/12/10 10:48:11;;;;;;;6.40;2.17;;;1.90;99.90;;;;;;5008502;28;20108;-69
2021/12/10 10:51:00;;;;;;;9.20;3.28;;;1.90;99.90;;;;;;5012209;28;20440;-62
2021/12/10 10:53:31;;;;;;;6.88;2.35;;;1.90;99.90;;;;;;5008266;28;20545;-62
2021/12/10 10:56:12;;;;;;;9.48;4.45;;;1.90;99.90;;;;;;5013492;28;20096;-68
2021/12/10 10:59:01;;;;;;;8.57;2.33;;;2.00;99.90;;;;;;5020246;28;20040;-62
2021/12/10 11:01:32;;;;;;;6.93;1.80;;;2.00;99.90;;;;;;5020582;28;20041;-63
2021/12/10 11:04:07;;;;;;;4.95;1.45;;;2.00;99.90;;;;;;5031231;28;20037;-63
2021/12/10 11:06:40;;;;;;;5.68;1.85;;;2.00;99.90;;;;;;5019689;28;20022;-63
2021/12/10 11:09:11;;;;;;;10.57;1.83;;;1.80;99.90;;;;;;5023915;28;20041;-64
2021/12/10 11:11:45;;;;;;;5.43;2.08;;;1.60;99.90;;;;;;5024156;28;20030;-65
2021/12/10 11:14:21;;;;;;;6.10;2.13;;;1.50;99.90;;;;;;5031599;28;20087;-71
2021/12/10 11:16:51;;;;;;;5.03;1.77;;;1.40;99.90;;;;;;5019313;28;20037;-67
2021/12/10 11:19:20;;;;;;;3.50;1.38;;;1.20;99.90;;;;;;5009903;28;20041;-64
2021/12/10 11:21:57;;;;;;;7.53;1.95;;;1.20;99.90;;;;;;5027127;28;20543;-63
2021/12/10 11:24:34;;;;;;;4.30;1.70;;;1.10;99.90;;;;;;5013012;28;20091;-62
2021/12/10 11:27:12;;;;;;;6.20;2.70;;;1.10;99.90;;;;;;5025333;28;20125;-61
2021/12/10 11:29:55;;;;;;;5.65;2.72;;;1.10;99.90;;;;;;5005762;28;20034;-62
2021/12/10 11:32:32;;;;;;;12.85;5.57;;;1.20;99.90;;;;;;5018816;28;20022;-63
2021/12/10 11:35:08;;;;;;;11.75;5.28;;;1.20;99.90;;;;;;5011197;28;20089;-62
2021/12/10 11:37:46;;;;;;;10.88;5.32;;;1.30;99.90;;;;;;5013812;28;20037;-62
2021/12/10 11:40:35;;;;;;;7.57;2.63;;;1.30;99.90;;;;;;5012921;28;20038;-72
2021/12/10 11:49:06;;;;;;;10.40;4.60;;;1.40;99.90;;;;;;5014018;28;20453;-62
2021/12/10 11:51:40;;;;;;;12.50;5.88;;;1.40;99.90;;;;;;5003176;28;20026;-63
2021/12/10 11:54:29;;;;;;;11.45;4.18;;;1.40;99.90;;;;;;5011184;28;20038;-62
2021/12/10 11:57:18;;;;;;;5.20;1.80;;;1.50;99.90;;;;;;5012620;28;20506;-72
2021/12/10 11:59:50;;;;;;;4.90;1.77;;;1.60;99.90;;;;;;5007627;28;20064;-62
2021/12/10 12:02:44;;;;;;;7.43;2.83;;;1.60;99.90;;;;;;5017450;28;20049;-69
2021/12/10 12:05:14;;;;;;;5.43;1.95;;;1.50;99.90;;;;;;5010814;28;20030;-62
2021/12/10 12:07:43;;;;;;;5.10;1.70;;;1.50;99.90;;;;;;5012069;28;20030;-62
2021/12/10 12:10:19;;;;;;;3.35;1.50;;;1.50;99.90;;;;;;5009470;28;20037;-61
2021/12/10 12:13:11;;;;;;;6.45;2.70;;;1.50;99.90;;;;;;4996668;28;20030;-64
2021/12/10 12:15:41;;;;;;;5.13;2.10;;;1.50;99.90;;;;;;5009805;28;20033;-64
2021/12/10 12:18:15;;;;;;;3.00;1.23;;;1.50;99.90;;;;;;4991852;28;20464;-64
2021/12/10 12:20:43;;;;;;;2.88;1.00;;;1.50;99.90;;;;;;5008509;28;20037;-61
2021/12/10 12:26:28;;;;;;;1.92;0.68;;;1.60;99.90;;;;;;5007939;28;20475;-62
2021/12/10 12:28:58;;;;;;;2.30;0.80;;;1.60;99.90;;;;;;5011143;28;20068;-64
2021/12/10 12:31:35;;;;;;;1.63;0.80;;;1.60;99.90;;;;;;5009243;28;20029;-64
2021/12/10 12:34:09;;;;;;;1.83;0.75;;;1.50;99.90;;;;;;5010208;28;20025;-62
2021/12/10 12:36:41;;;;;;;3.42;1.00;;;1.40;99.90;;;;;;5013345;28;20037;-61
2021/12/10 12:39:25;;;;;;;2.55;0.95;;;1.30;99.90;;;;;;5010145;28;20099;-63
2021/12/10 12:41:52;;;;;;;5.97;1.25;;;1.30;99.90;;;;;;5010142;28;20441;-61
2021/12/10 12:44:30;;;;;;;3.97;0.90;;;1.30;99.90;;;;;;4993641;28;20085;-69
2021/12/10 12:47:01;;;;;;;5.18;1.10;;;1.30;99.90;;;;;;5025740;28;20029;-61
2021/12/10 12:49:47;;;;;;;3.80;1.13;;;1.20;99.90;;;;;;5011969;28;20045;-65
2021/12/10 12:52:17;;;;;;;3.35;1.30;;;1.00;99.90;;;;;;5006743;28;20397;-66
2021/12/10 12:55:08;;;;;;;3.50;1.27;;;0.90;99.90;;;;;;5021550;28;20029;-62
2021/12/10 12:57:36;;;;;;;3.80;1.38;;;0.80;99.90;;;;;;5007139;28;20387;-62
2021/12/10 13:00:07;;;;;;;4.07;1.35;;;0.80;99.90;;;;;;5015554;28;20040;-63
2021/12/10 13:02:32;;;;;;;;;;;0.70;99.90;;;;;;5014313;28;20092;-69
2021/12/10 13:04:58;;;;;;;5.60;1.48;;;0.60;99.90;;;;;;5015292;28;19910;-61
2021/12/10 13:07:25;;;;;;;4.03;1.90;;;0.50;99.90;;;;;;5022980;28;20061;-62
2021/12/10 13:09:55;;;;;;;5.50;2.00;;;0.50;99.90;;;;;;5010854;28;20030;-61
2021/12/10 13:12:46;;;;;;;;;;;0.40;99.90;;;;;;5009865;28;20030;-61
2021/12/10 13:15:18;;;;;;;6.13;2.10;;;0.30;99.90;;;;;;5008788;28;20031;-67
2021/12/10 13:18:00;;;;;;;7.85;2.50;;;0.30;99.90;;;;;;5012968;28;20056;-61
2021/12/10 13:20:32;;;;;;;4.90;2.20;;;0.30;99.90;;;;;;4996550;28;20089;-62